sensor_id;sensor_type;location;lat;lon;timestamp;temperature;humidity
21171;DHT22;10743;52.160;20.910;2023-03-03T00:01:57;15.90;35.30
21171;DHT22;10743;52.160;20.910;2023-03-03T00:04:24;15.90;36.00
21171;DHT22;10743;52.160;20.910;2023-03-03T00:06:51;15.90;35.40
21171;DHT22;10743;52.160;20.910;2023-03-03T00:09:18;15.90;35.30
21171;DHT22;10743;52.160;20.910;2023-03-03T00:11:47;15.90;35.30
21171;DHT22;10743;52.160;20.910;2023-03-03T00:14:29;15.90;35.30
21171;DHT22;10743;52.160;20.910;2023-03-03T00:17:00;15.90;35.30
21171;DHT22;10743;52.160;20.910;2023-03-03T00:19:29;15.90;35.30
21171;DHT22;10743;52.160;20.910;2023-03-03T00:22:15;16.00;35.30
21171;DHT22;10743;52.160;20.910;2023-03-03T00:27:45;16.00;35.20
21171;DHT22;10743;52.160;20.910;2023-03-03T00:30:39;16.00;35.20
21171;DHT22;10743;52.160;20.910;2023-03-03T00:33:30;16.00;35.10
21171;DHT22;10743;52.160;20.910;2023-03-03T00:38:42;16.00;35.20
21171;DHT22;10743;52.160;20.910;2023-03-03T00:41:22;16.00;35.20
21171;DHT22;10743;52.160;20.910;2023-03-03T00:43:51;16.00;35.10
21171;DHT22;10743;52.160;20.910;2023-03-03T00:46:21;16.00;35.00
21171;DHT22;10743;52.160;20.910;2023-03-03T00:48:50;16.00;35.00
21171;DHT22;10743;52.160;20.910;2023-03-03T00:51:26;16.00;35.00
21171;DHT22;10743;52.160;20.910;2023-03-03T00:53:57;16.00;35.00
21171;DHT22;10743;52.160;20.910;2023-03-03T00:56:25;16.00;35.00
21171;DHT22;10743;52.160;20.910;2023-03-03T00:58:53;16.00;35.00
21171;DHT22;10743;52.160;20.910;2023-03-03T01:01:21;16.00;35.00
21171;DHT22;10743;52.160;20.910;2023-03-03T01:03:52;16.00;34.90
21171;DHT22;10743;52.160;20.910;2023-03-03T01:06:19;16.00;34.90
21171;DHT22;10743;52.160;20.910;2023-03-03T01:08:47;16.00;34.90
21171;DHT22;10743;52.160;20.910;2023-03-03T01:11:17;16.00;35.00
21171;DHT22;10743;52.160;20.910;2023-03-03T01:13:48;15.90;35.00
21171;DHT22;10743;52.160;20.910;2023-03-03T01:16:16;15.90;35.00
21171;DHT22;10743;52.160;20.910;2023-03-03T01:18:44;15.90;35.00
21171;DHT22;10743;52.160;20.910;2023-03-03T01:21:11;15.90;35.00
21171;DHT22;10743;52.160;20.910;2023-03-03T01:23:39;15.90;35.00
21171;DHT22;10743;52.160;20.910;2023-03-03T01:26:07;15.90;35.00
21171;DHT22;10743;52.160;20.910;2023-03-03T01:28:34;15.90;35.00
21171;DHT22;10743;52.160;20.910;2023-03-03T01:31:02;15.90;35.00
21171;DHT22;10743;52.160;20.910;2023-03-03T01:33:32;15.90;35.00
21171;DHT22;10743;52.160;20.910;2023-03-03T01:36:01;15.90;34.90
21171;DHT22;10743;52.160;20.910;2023-03-03T01:38:29;15.90;34.90
21171;DHT22;10743;52.160;20.910;2023-03-03T01:40:58;15.90;34.90
21171;DHT22;10743;52.160;20.910;2023-03-03T01:43:27;15.90;34.90
21171;DHT22;10743;52.160;20.910;2023-03-03T01:48:41;15.90;34.90
21171;DHT22;10743;52.160;20.910;2023-03-03T01:51:27;15.90;34.90
21171;DHT22;10743;52.160;20.910;2023-03-03T01:53:58;15.90;34.90
21171;DHT22;10743;52.160;20.910;2023-03-03T01:56:27;15.90;34.80
21171;DHT22;10743;52.160;20.910;2023-03-03T01:59:07;15.90;34.80
21171;DHT22;10743;52.160;20.910;2023-03-03T02:01:40;15.90;34.80
21171;DHT22;10743;52.160;20.910;2023-03-03T02:04:08;15.90;34.80
21171;DHT22;10743;52.160;20.910;2023-03-03T02:06:40;15.90;34.90
21171;DHT22;10743;52.160;20.910;2023-03-03T02:09:15;15.90;35.00
21171;DHT22;10743;52.160;20.910;2023-03-03T02:11:50;15.90;35.00
21171;DHT22;10743;52.160;20.910;2023-03-03T02:14:18;15.90;35.00
21171;DHT22;10743;52.160;20.910;2023-03-03T02:16:45;15.90;35.00
21171;DHT22;10743;52.160;20.910;2023-03-03T02:19:35;15.90;35.00
21171;DHT22;10743;52.160;20.910;2023-03-03T02:22:05;15.90;35.00
21171;DHT22;10743;52.160;20.910;2023-03-03T02:24:54;15.90;35.00
21171;DHT22;10743;52.160;20.910;2023-03-03T02:27:26;15.80;35.00
21171;DHT22;10743;52.160;20.910;2023-03-03T02:29:56;15.80;35.00
21171;DHT22;10743;52.160;20.910;2023-03-03T02:32:24;15.80;35.00
21171;DHT22;10743;52.160;20.910;2023-03-03T02:34:51;15.80;35.00
21171;DHT22;10743;52.160;20.910;2023-03-03T02:37:19;15.80;35.10
21171;DHT22;10743;52.160;20.910;2023-03-03T02:39:47;15.80;35.20
21171;DHT22;10743;52.160;20.910;2023-03-03T02:42:22;15.90;35.30
21171;DHT22;10743;52.160;20.910;2023-03-03T02:44:54;15.80;35.20
21171;DHT22;10743;52.160;20.910;2023-03-03T02:47:21;15.80;35.30
21171;DHT22;10743;52.160;20.910;2023-03-03T02:49:48;15.90;35.40
21171;DHT22;10743;52.160;20.910;2023-03-03T02:52:16;15.90;35.50
21171;DHT22;10743;52.160;20.910;2023-03-03T02:54:46;15.90;35.50
21171;DHT22;10743;52.160;20.910;2023-03-03T02:57:13;15.90;35.50
21171;DHT22;10743;52.160;20.910;2023-03-03T02:59:40;15.90;35.50
21171;DHT22;10743;52.160;20.910;2023-03-03T03:02:11;15.90;35.50
21171;DHT22;10743;52.160;20.910;2023-03-03T03:04:38;15.90;35.50
21171;DHT22;10743;52.160;20.910;2023-03-03T03:07:05;15.90;34.90
21171;DHT22;10743;52.160;20.910;2023-03-03T03:09:35;15.90;35.50
21171;DHT22;10743;52.160;20.910;2023-03-03T03:12:03;15.90;35.40
21171;DHT22;10743;52.160;20.910;2023-03-03T03:14:33;15.90;35.40
21171;DHT22;10743;52.160;20.910;2023-03-03T03:17:00;15.90;35.40
21171;DHT22;10743;52.160;20.910;2023-03-03T03:19:27;15.90;35.30
21171;DHT22;10743;52.160;20.910;2023-03-03T03:21:58;15.90;35.30
21171;DHT22;10743;52.160;20.910;2023-03-03T03:24:26;15.90;35.30
21171;DHT22;10743;52.160;20.910;2023-03-03T03:26:59;15.90;35.30
21171;DHT22;10743;52.160;20.910;2023-03-03T03:29:27;15.80;35.30
21171;DHT22;10743;52.160;20.910;2023-03-03T03:31:54;15.80;35.30
21171;DHT22;10743;52.160;20.910;2023-03-03T03:34:21;15.80;35.30
21171;DHT22;10743;52.160;20.910;2023-03-03T03:36:50;15.80;35.30
21171;DHT22;10743;52.160;20.910;2023-03-03T03:39:18;15.80;35.40
21171;DHT22;10743;52.160;20.910;2023-03-03T03:41:47;15.80;35.50
21171;DHT22;10743;52.160;20.910;2023-03-03T03:44:15;15.80;35.50
21171;DHT22;10743;52.160;20.910;2023-03-03T03:46:42;15.80;35.60
21171;DHT22;10743;52.160;20.910;2023-03-03T03:49:10;15.90;35.60
21171;DHT22;10743;52.160;20.910;2023-03-03T03:51:37;15.90;35.70
21171;DHT22;10743;52.160;20.910;2023-03-03T03:54:09;15.90;35.70
21171;DHT22;10743;52.160;20.910;2023-03-03T03:56:37;15.90;35.70
21171;DHT22;10743;52.160;20.910;2023-03-03T03:59:05;15.90;35.70
21171;DHT22;10743;52.160;20.910;2023-03-03T04:01:33;15.90;35.70
21171;DHT22;10743;52.160;20.910;2023-03-03T04:04:00;15.90;35.70
21171;DHT22;10743;52.160;20.910;2023-03-03T04:06:30;16.00;35.70
21171;DHT22;10743;52.160;20.910;2023-03-03T04:08:58;16.00;35.70
21171;DHT22;10743;52.160;20.910;2023-03-03T04:11:27;16.00;35.60
21171;DHT22;10743;52.160;20.910;2023-03-03T04:13:54;16.00;35.60
21171;DHT22;10743;52.160;20.910;2023-03-03T04:16:21;16.00;35.60
21171;DHT22;10743;52.160;20.910;2023-03-03T04:18:49;16.00;35.60
21171;DHT22;10743;52.160;20.910;2023-03-03T04:21:16;16.00;35.50
21171;DHT22;10743;52.160;20.910;2023-03-03T04:23:45;16.00;35.50
21171;DHT22;10743;52.160;20.910;2023-03-03T04:26:12;16.10;35.60
21171;DHT22;10743;52.160;20.910;2023-03-03T04:28:41;16.10;35.50
21171;DHT22;10743;52.160;20.910;2023-03-03T04:31:09;16.00;35.40
21171;DHT22;10743;52.160;20.910;2023-03-03T04:33:36;16.00;35.50
21171;DHT22;10743;52.160;20.910;2023-03-03T04:36:04;16.10;35.50
21171;DHT22;10743;52.160;20.910;2023-03-03T04:38:32;16.00;35.40
21171;DHT22;10743;52.160;20.910;2023-03-03T04:40:59;16.00;35.50
21171;DHT22;10743;52.160;20.910;2023-03-03T04:43:30;16.00;35.40
21171;DHT22;10743;52.160;20.910;2023-03-03T04:45:59;16.00;35.30
21171;DHT22;10743;52.160;20.910;2023-03-03T04:48:26;16.00;35.30
21171;DHT22;10743;52.160;20.910;2023-03-03T04:50:53;16.00;35.30
21171;DHT22;10743;52.160;20.910;2023-03-03T04:53:21;16.10;35.30
21171;DHT22;10743;52.160;20.910;2023-03-03T04:55:52;16.10;35.30
21171;DHT22;10743;52.160;20.910;2023-03-03T04:58:21;16.10;35.20
21171;DHT22;10743;52.160;20.910;2023-03-03T05:00:54;16.10;35.20
21171;DHT22;10743;52.160;20.910;2023-03-03T05:03:24;16.10;35.20
21171;DHT22;10743;52.160;20.910;2023-03-03T05:05:52;16.10;35.10
21171;DHT22;10743;52.160;20.910;2023-03-03T05:08:20;16.10;34.50
21171;DHT22;10743;52.160;20.910;2023-03-03T05:10:51;16.10;35.00
21171;DHT22;10743;52.160;20.910;2023-03-03T05:13:19;16.20;34.90
21171;DHT22;10743;52.160;20.910;2023-03-03T05:15:54;16.10;34.80
21171;DHT22;10743;52.160;20.910;2023-03-03T05:18:25;16.10;34.80
21171;DHT22;10743;52.160;20.910;2023-03-03T05:20:53;16.10;34.80
21171;DHT22;10743;52.160;20.910;2023-03-03T05:23:21;16.10;34.90
21171;DHT22;10743;52.160;20.910;2023-03-03T05:25:49;16.10;34.80
21171;DHT22;10743;52.160;20.910;2023-03-03T05:28:16;16.10;34.80
21171;DHT22;10743;52.160;20.910;2023-03-03T05:30:44;16.10;34.80
21171;DHT22;10743;52.160;20.910;2023-03-03T05:33:13;16.10;35.00
21171;DHT22;10743;52.160;20.910;2023-03-03T05:35:41;16.00;35.00
21171;DHT22;10743;52.160;20.910;2023-03-03T05:38:09;16.10;35.10
21171;DHT22;10743;52.160;20.910;2023-03-03T05:40:37;16.00;35.20
21171;DHT22;10743;52.160;20.910;2023-03-03T05:43:04;16.10;35.40
21171;DHT22;10743;52.160;20.910;2023-03-03T05:45:32;16.20;35.40
21171;DHT22;10743;52.160;20.910;2023-03-03T05:48:01;16.10;35.30
21171;DHT22;10743;52.160;20.910;2023-03-03T05:50:30;16.10;35.50
21171;DHT22;10743;52.160;20.910;2023-03-03T05:52:58;16.00;35.60
21171;DHT22;10743;52.160;20.910;2023-03-03T05:55:25;16.10;35.70
21171;DHT22;10743;52.160;20.910;2023-03-03T05:57:52;16.00;35.80
21171;DHT22;10743;52.160;20.910;2023-03-03T06:00:19;16.00;35.90
21171;DHT22;10743;52.160;20.910;2023-03-03T06:02:47;16.00;36.10
21171;DHT22;10743;52.160;20.910;2023-03-03T06:05:14;16.00;36.10
21171;DHT22;10743;52.160;20.910;2023-03-03T06:07:41;15.90;36.10
21171;DHT22;10743;52.160;20.910;2023-03-03T06:10:09;16.00;36.30
21171;DHT22;10743;52.160;20.910;2023-03-03T06:12:39;16.00;36.50
21171;DHT22;10743;52.160;20.910;2023-03-03T06:15:08;16.00;36.30
21171;DHT22;10743;52.160;20.910;2023-03-03T06:17:36;16.00;36.20
21171;DHT22;10743;52.160;20.910;2023-03-03T06:20:03;16.00;36.40
21171;DHT22;10743;52.160;20.910;2023-03-03T06:22:32;16.10;36.40
21171;DHT22;10743;52.160;20.910;2023-03-03T06:24:59;16.00;36.40
21171;DHT22;10743;52.160;20.910;2023-03-03T06:27:26;16.00;36.50
21171;DHT22;10743;52.160;20.910;2023-03-03T06:29:53;15.90;36.50
21171;DHT22;10743;52.160;20.910;2023-03-03T06:32:20;15.90;36.40
21171;DHT22;10743;52.160;20.910;2023-03-03T06:34:47;15.90;36.50
21171;DHT22;10743;52.160;20.910;2023-03-03T06:37:15;15.80;36.80
21171;DHT22;10743;52.160;20.910;2023-03-03T06:39:42;15.90;36.90
21171;DHT22;10743;52.160;20.910;2023-03-03T06:42:09;15.80;36.80
21171;DHT22;10743;52.160;20.910;2023-03-03T06:44:36;15.80;36.90
21171;DHT22;10743;52.160;20.910;2023-03-03T06:47:03;15.80;36.90
21171;DHT22;10743;52.160;20.910;2023-03-03T06:49:31;15.80;36.90
21171;DHT22;10743;52.160;20.910;2023-03-03T06:52:00;15.90;37.00
21171;DHT22;10743;52.160;20.910;2023-03-03T06:54:36;15.90;36.90
21171;DHT22;10743;52.160;20.910;2023-03-03T06:57:29;15.80;36.80
21171;DHT22;10743;52.160;20.910;2023-03-03T07:02:42;15.90;36.80
21171;DHT22;10743;52.160;20.910;2023-03-03T07:05:16;15.90;36.80
21171;DHT22;10743;52.160;20.910;2023-03-03T07:07:44;15.90;36.90
21171;DHT22;10743;52.160;20.910;2023-03-03T07:10:24;15.90;36.90
21171;DHT22;10743;52.160;20.910;2023-03-03T07:12:53;15.90;37.00
21171;DHT22;10743;52.160;20.910;2023-03-03T07:15:22;15.90;37.10
21171;DHT22;10743;52.160;20.910;2023-03-03T07:17:55;15.90;37.20
21171;DHT22;10743;52.160;20.910;2023-03-03T07:20:35;15.90;37.30
21171;DHT22;10743;52.160;20.910;2023-03-03T07:25:50;15.90;37.70
21171;DHT22;10743;52.160;20.910;2023-03-03T07:28:32;15.90;37.70
21171;DHT22;10743;52.160;20.910;2023-03-03T07:30:59;15.90;37.70
21171;DHT22;10743;52.160;20.910;2023-03-03T07:33:42;16.00;37.80
21171;DHT22;10743;52.160;20.910;2023-03-03T07:36:34;16.00;37.70
21171;DHT22;10743;52.160;20.910;2023-03-03T07:39:53;16.00;37.80
21171;DHT22;10743;52.160;20.910;2023-03-03T07:42:47;16.10;37.80
21171;DHT22;10743;52.160;20.910;2023-03-03T07:45:28;16.10;38.00
21171;DHT22;10743;52.160;20.910;2023-03-03T07:48:29;16.10;37.90
21171;DHT22;10743;52.160;20.910;2023-03-03T07:51:02;16.20;38.00
21171;DHT22;10743;52.160;20.910;2023-03-03T07:53:34;16.20;38.10
21171;DHT22;10743;52.160;20.910;2023-03-03T07:56:21;16.20;38.20
21171;DHT22;10743;52.160;20.910;2023-03-03T07:58:52;16.20;38.20
21171;DHT22;10743;52.160;20.910;2023-03-03T08:03:57;15.10;37.60
21171;DHT22;10743;52.160;20.910;2023-03-03T08:14:36;16.30;38.50
21171;DHT22;10743;52.160;20.910;2023-03-03T08:17:22;16.40;38.50
21171;DHT22;10743;52.160;20.910;2023-03-03T08:19:52;16.40;38.50
21171;DHT22;10743;52.160;20.910;2023-03-03T08:22:34;16.50;38.60
21171;DHT22;10743;52.160;20.910;2023-03-03T08:25:02;16.50;38.30
21171;DHT22;10743;52.160;20.910;2023-03-03T08:27:29;16.60;38.30
21171;DHT22;10743;52.160;20.910;2023-03-03T08:29:56;16.60;38.20
21171;DHT22;10743;52.160;20.910;2023-03-03T08:32:23;16.60;38.30
21171;DHT22;10743;52.160;20.910;2023-03-03T08:34:51;16.60;38.20
21171;DHT22;10743;52.160;20.910;2023-03-03T08:37:18;16.70;38.20
21171;DHT22;10743;52.160;20.910;2023-03-03T08:39:45;16.70;38.10
21171;DHT22;10743;52.160;20.910;2023-03-03T08:42:12;16.80;38.20
21171;DHT22;10743;52.160;20.910;2023-03-03T08:44:41;16.80;38.20
21171;DHT22;10743;52.160;20.910;2023-03-03T08:47:09;16.80;38.20
21171;DHT22;10743;52.160;20.910;2023-03-03T08:49:36;16.80;38.10
21171;DHT22;10743;52.160;20.910;2023-03-03T08:52:03;16.90;37.90
21171;DHT22;10743;52.160;20.910;2023-03-03T08:54:30;16.90;38.00
21171;DHT22;10743;52.160;20.910;2023-03-03T08:56:57;16.90;38.10
21171;DHT22;10743;52.160;20.910;2023-03-03T08:59:24;16.90;38.00
21171;DHT22;10743;52.160;20.910;2023-03-03T09:01:51;16.90;38.00
21171;DHT22;10743;52.160;20.910;2023-03-03T09:04:19;16.90;38.00
21171;DHT22;10743;52.160;20.910;2023-03-03T09:06:46;16.90;37.90
21171;DHT22;10743;52.160;20.910;2023-03-03T09:09:13;16.90;37.90
21171;DHT22;10743;52.160;20.910;2023-03-03T09:11:41;16.90;37.90
21171;DHT22;10743;52.160;20.910;2023-03-03T09:14:11;17.00;37.80
21171;DHT22;10743;52.160;20.910;2023-03-03T09:16:44;17.00;37.80
21171;DHT22;10743;52.160;20.910;2023-03-03T09:22:24;17.00;37.60
21171;DHT22;10743;52.160;20.910;2023-03-03T09:25:01;17.00;37.50
21171;DHT22;10743;52.160;20.910;2023-03-03T09:27:30;17.00;37.60
21171;DHT22;10743;52.160;20.910;2023-03-03T09:30:11;17.10;37.50
21171;DHT22;10743;52.160;20.910;2023-03-03T09:32:55;17.10;37.40
21171;DHT22;10743;52.160;20.910;2023-03-03T09:54:08;17.10;37.20
21171;DHT22;10743;52.160;20.910;2023-03-03T10:21:09;17.40;36.70
21171;DHT22;10743;52.160;20.910;2023-03-03T10:36:47;17.30;36.70
21171;DHT22;10743;52.160;20.910;2023-03-03T10:42:48;17.20;36.90
21171;DHT22;10743;52.160;20.910;2023-03-03T10:54:30;17.00;37.40
21171;DHT22;10743;52.160;20.910;2023-03-03T11:00:26;17.00;37.30
21171;DHT22;10743;52.160;20.910;2023-03-03T11:06:39;17.10;37.40
21171;DHT22;10743;52.160;20.910;2023-03-03T11:09:40;17.10;38.00
21171;DHT22;10743;52.160;20.910;2023-03-03T11:18:02;17.20;37.40
21171;DHT22;10743;52.160;20.910;2023-03-03T11:29:08;17.10;37.20
21171;DHT22;10743;52.160;20.910;2023-03-03T11:34:55;17.10;36.90
21171;DHT22;10743;52.160;20.910;2023-03-03T11:43:38;17.20;36.50
21171;DHT22;10743;52.160;20.910;2023-03-03T11:46:15;17.10;36.60
21171;DHT22;10743;52.160;20.910;2023-03-03T11:49:02;17.10;36.60
21171;DHT22;10743;52.160;20.910;2023-03-03T12:00:37;17.10;36.60
21171;DHT22;10743;52.160;20.910;2023-03-03T12:12:02;16.90;37.10
21171;DHT22;10743;52.160;20.910;2023-03-03T12:15:03;17.00;36.90
21171;DHT22;10743;52.160;20.910;2023-03-03T12:29:46;17.10;36.60
21171;DHT22;10743;52.160;20.910;2023-03-03T12:38:09;17.20;36.30
21171;DHT22;10743;52.160;20.910;2023-03-03T12:44:17;17.30;36.30
21171;DHT22;10743;52.160;20.910;2023-03-03T13:08:56;17.20;36.20
21171;DHT22;10743;52.160;20.910;2023-03-03T13:14:55;17.10;36.40
21171;DHT22;10743;52.160;20.910;2023-03-03T13:17:37;17.00;36.30
21171;DHT22;10743;52.160;20.910;2023-03-03T13:20:24;17.00;36.40
21171;DHT22;10743;52.160;20.910;2023-03-03T13:23:28;17.00;36.40
21171;DHT22;10743;52.160;20.910;2023-03-03T13:26:02;17.00;36.50
21171;DHT22;10743;52.160;20.910;2023-03-03T13:29:12;17.00;36.50
21171;DHT22;10743;52.160;20.910;2023-03-03T13:32:14;17.00;36.50
21171;DHT22;10743;52.160;20.910;2023-03-03T13:37:31;17.00;36.50
21171;DHT22;10743;52.160;20.910;2023-03-03T13:45:53;17.10;36.30
21171;DHT22;10743;52.160;20.910;2023-03-03T13:57:21;17.20;36.10
21171;DHT22;10743;52.160;20.910;2023-03-03T14:02:47;17.30;36.00
21171;DHT22;10743;52.160;20.910;2023-03-03T14:19:56;17.40;35.80
21171;DHT22;10743;52.160;20.910;2023-03-03T14:22:37;17.40;35.70
21171;DHT22;10743;52.160;20.910;2023-03-03T14:25:13;17.30;35.80
21171;DHT22;10743;52.160;20.910;2023-03-03T14:28:37;17.30;35.90
21171;DHT22;10743;52.160;20.910;2023-03-03T14:30:54;17.30;36.00
21171;DHT22;10743;52.160;20.910;2023-03-03T14:33:28;17.30;36.70
21171;DHT22;10743;52.160;20.910;2023-03-03T14:41:15;17.30;35.90
21171;DHT22;10743;52.160;20.910;2023-03-03T14:47:04;17.30;35.70
21171;DHT22;10743;52.160;20.910;2023-03-03T14:49:39;17.40;35.70
21171;DHT22;10743;52.160;20.910;2023-03-03T14:54:47;17.30;35.90
21171;DHT22;10743;52.160;20.910;2023-03-03T14:57:36;17.30;35.90
21171;DHT22;10743;52.160;20.910;2023-03-03T15:00:26;17.30;35.90
21171;DHT22;10743;52.160;20.910;2023-03-03T15:03:26;17.30;35.70
21171;DHT22;10743;52.160;20.910;2023-03-03T15:05:56;17.30;35.70
21171;DHT22;10743;52.160;20.910;2023-03-03T15:08:31;17.30;35.80
21171;DHT22;10743;52.160;20.910;2023-03-03T15:11:29;17.30;35.90
21171;DHT22;10743;52.160;20.910;2023-03-03T15:14:14;17.30;36.50
21171;DHT22;10743;52.160;20.910;2023-03-03T15:16:42;17.30;35.70
21171;DHT22;10743;52.160;20.910;2023-03-03T15:22:50;17.30;35.70
21171;DHT22;10743;52.160;20.910;2023-03-03T15:25:43;17.20;35.70
21171;DHT22;10743;52.160;20.910;2023-03-03T15:28:35;17.10;35.80
21171;DHT22;10743;52.160;20.910;2023-03-03T15:31:26;17.10;35.90
21171;DHT22;10743;52.160;20.910;2023-03-03T15:34:26;17.00;36.60
21171;DHT22;10743;52.160;20.910;2023-03-03T15:37:07;17.00;36.10
21171;DHT22;10743;52.160;20.910;2023-03-03T15:42:46;17.00;35.90
21171;DHT22;10743;52.160;20.910;2023-03-03T16:02:55;17.00;36.20
21171;DHT22;10743;52.160;20.910;2023-03-03T16:05:32;17.00;36.20
21171;DHT22;10743;52.160;20.910;2023-03-03T16:08:16;17.00;35.90
21171;DHT22;10743;52.160;20.910;2023-03-03T16:31:36;16.90;36.00
21171;DHT22;10743;52.160;20.910;2023-03-03T16:42:33;16.90;35.90
21171;DHT22;10743;52.160;20.910;2023-03-03T16:45:17;16.90;35.90
21171;DHT22;10743;52.160;20.910;2023-03-03T16:53:17;16.90;36.00
21171;DHT22;10743;52.160;20.910;2023-03-03T16:56:29;16.90;35.80
21171;DHT22;10743;52.160;20.910;2023-03-03T17:02:07;16.90;35.70
21171;DHT22;10743;52.160;20.910;2023-03-03T17:10:36;17.10;35.70
21171;DHT22;10743;52.160;20.910;2023-03-03T17:13:44;17.20;35.30
21171;DHT22;10743;52.160;20.910;2023-03-03T17:27:37;17.30;35.00
21171;DHT22;10743;52.160;20.910;2023-03-03T17:38:52;17.30;35.10
21171;DHT22;10743;52.160;20.910;2023-03-03T17:50:41;17.30;35.00
21171;DHT22;10743;52.160;20.910;2023-03-03T18:05:53;17.20;34.90
21171;DHT22;10743;52.160;20.910;2023-03-03T18:08:44;17.20;34.90
21171;DHT22;10743;52.160;20.910;2023-03-03T18:26:01;17.20;34.80
21171;DHT22;10743;52.160;20.910;2023-03-03T18:28:43;17.30;34.60
21171;DHT22;10743;52.160;20.910;2023-03-03T18:31:23;17.30;34.40
21171;DHT22;10743;52.160;20.910;2023-03-03T18:33:59;17.20;34.40
21171;DHT22;10743;52.160;20.910;2023-03-03T18:39:00;17.20;34.40
21171;DHT22;10743;52.160;20.910;2023-03-03T18:41:33;17.70;34.90
21171;DHT22;10743;52.160;20.910;2023-03-03T18:44:49;17.20;34.60
21171;DHT22;10743;52.160;20.910;2023-03-03T18:47:16;17.10;34.80
21171;DHT22;10743;52.160;20.910;2023-03-03T18:52:27;17.10;34.70
21171;DHT22;10743;52.160;20.910;2023-03-03T18:57:36;17.10;34.80
21171;DHT22;10743;52.160;20.910;2023-03-03T19:00:27;17.10;34.90
21171;DHT22;10743;52.160;20.910;2023-03-03T19:02:57;17.10;35.00
21171;DHT22;10743;52.160;20.910;2023-03-03T19:05:33;17.10;35.00
21171;DHT22;10743;52.160;20.910;2023-03-03T19:08:17;17.20;34.80
21171;DHT22;10743;52.160;20.910;2023-03-03T19:10:58;17.20;34.60
21171;DHT22;10743;52.160;20.910;2023-03-03T19:21:27;17.10;35.00
21171;DHT22;10743;52.160;20.910;2023-03-03T19:32:34;17.20;34.70
21171;DHT22;10743;52.160;20.910;2023-03-03T19:38:35;17.20;34.50
21171;DHT22;10743;52.160;20.910;2023-03-03T19:41:28;17.20;34.50
21171;DHT22;10743;52.160;20.910;2023-03-03T19:49:41;17.20;34.60
21171;DHT22;10743;52.160;20.910;2023-03-03T19:59:02;17.20;34.70
21171;DHT22;10743;52.160;20.910;2023-03-03T20:04:59;17.30;34.20
21171;DHT22;10743;52.160;20.910;2023-03-03T20:07:57;17.30;34.20
21171;DHT22;10743;52.160;20.910;2023-03-03T20:11:09;17.30;34.10
21171;DHT22;10743;52.160;20.910;2023-03-03T20:16:38;17.40;34.10
21171;DHT22;10743;52.160;20.910;2023-03-03T20:22:21;17.30;34.30
21171;DHT22;10743;52.160;20.910;2023-03-03T20:25:16;17.30;34.50
21171;DHT22;10743;52.160;20.910;2023-03-03T20:34:10;17.40;34.50
21171;DHT22;10743;52.160;20.910;2023-03-03T20:43:15;17.40;34.40
21171;DHT22;10743;52.160;20.910;2023-03-03T20:57:14;17.40;34.10
21171;DHT22;10743;52.160;20.910;2023-03-03T21:00:02;17.50;34.30
21171;DHT22;10743;52.160;20.910;2023-03-03T21:02:47;17.40;34.30
21171;DHT22;10743;52.160;20.910;2023-03-03T21:05:20;17.40;34.40
21171;DHT22;10743;52.160;20.910;2023-03-03T21:08:02;17.40;34.50
21171;DHT22;10743;52.160;20.910;2023-03-03T21:10:32;17.40;34.40
21171;DHT22;10743;52.160;20.910;2023-03-03T21:13:27;17.40;34.50
21171;DHT22;10743;52.160;20.910;2023-03-03T21:21:39;17.40;34.50
21171;DHT22;10743;52.160;20.910;2023-03-03T21:24:10;17.40;34.70
21171;DHT22;10743;52.160;20.910;2023-03-03T21:26:57;17.30;34.80
21171;DHT22;10743;52.160;20.910;2023-03-03T21:29:27;17.40;34.50
21171;DHT22;10743;52.160;20.910;2023-03-03T21:32:06;17.40;34.60
21171;DHT22;10743;52.160;20.910;2023-03-03T21:34:37;17.50;34.60
21171;DHT22;10743;52.160;20.910;2023-03-03T21:37:10;17.40;34.70
21171;DHT22;10743;52.160;20.910;2023-03-03T21:39:42;17.40;34.70
21171;DHT22;10743;52.160;20.910;2023-03-03T21:42:11;17.40;34.80
21171;DHT22;10743;52.160;20.910;2023-03-03T21:45:12;17.40;34.70
21171;DHT22;10743;52.160;20.910;2023-03-03T21:47:41;17.50;34.70
21171;DHT22;10743;52.160;20.910;2023-03-03T21:50:08;17.40;34.60
21171;DHT22;10743;52.160;20.910;2023-03-03T21:52:37;17.50;34.40
21171;DHT22;10743;52.160;20.910;2023-03-03T21:55:04;17.50;34.30
21171;DHT22;10743;52.160;20.910;2023-03-03T21:57:32;17.40;34.40
21171;DHT22;10743;52.160;20.910;2023-03-03T22:00:03;17.40;34.50
21171;DHT22;10743;52.160;20.910;2023-03-03T22:02:33;17.40;34.60
21171;DHT22;10743;52.160;20.910;2023-03-03T22:05:01;17.40;34.60
21171;DHT22;10743;52.160;20.910;2023-03-03T22:07:33;17.40;34.70
21171;DHT22;10743;52.160;20.910;2023-03-03T22:10:00;17.40;34.80
21171;DHT22;10743;52.160;20.910;2023-03-03T22:12:29;17.40;34.80
21171;DHT22;10743;52.160;20.910;2023-03-03T22:14:56;17.40;34.80
21171;DHT22;10743;52.160;20.910;2023-03-03T22:17:23;17.40;34.90
21171;DHT22;10743;52.160;20.910;2023-03-03T22:19:51;17.40;34.90
21171;DHT22;10743;52.160;20.910;2023-03-03T22:22:19;17.40;34.80
21171;DHT22;10743;52.160;20.910;2023-03-03T22:24:46;17.30;34.80
21171;DHT22;10743;52.160;20.910;2023-03-03T22:27:13;17.30;34.70
21171;DHT22;10743;52.160;20.910;2023-03-03T22:29:40;17.30;34.90
21171;DHT22;10743;52.160;20.910;2023-03-03T22:32:07;17.30;34.90
21171;DHT22;10743;52.160;20.910;2023-03-03T22:34:34;17.40;34.90
21171;DHT22;10743;52.160;20.910;2023-03-03T22:37:02;17.40;34.80
21171;DHT22;10743;52.160;20.910;2023-03-03T22:39:29;17.40;34.70
21171;DHT22;10743;52.160;20.910;2023-03-03T22:41:56;17.50;34.80
21171;DHT22;10743;52.160;20.910;2023-03-03T22:44:23;17.40;34.80
21171;DHT22;10743;52.160;20.910;2023-03-03T22:46:50;17.50;34.90
21171;DHT22;10743;52.160;20.910;2023-03-03T22:49:17;17.50;34.90
21171;DHT22;10743;52.160;20.910;2023-03-03T22:51:45;17.40;34.90
21171;DHT22;10743;52.160;20.910;2023-03-03T22:54:12;17.40;34.90
21171;DHT22;10743;52.160;20.910;2023-03-03T22:56:39;17.50;34.80
21171;DHT22;10743;52.160;20.910;2023-03-03T22:59:06;17.50;34.90
21171;DHT22;10743;52.160;20.910;2023-03-03T23:01:33;17.50;35.00
21171;DHT22;10743;52.160;20.910;2023-03-03T23:04:00;17.50;35.00
21171;DHT22;10743;52.160;20.910;2023-03-03T23:06:27;17.50;35.00
21171;DHT22;10743;52.160;20.910;2023-03-03T23:08:54;17.50;35.00
21171;DHT22;10743;52.160;20.910;2023-03-03T23:11:21;17.50;35.00
21171;DHT22;10743;52.160;20.910;2023-03-03T23:13:50;17.50;35.00
21171;DHT22;10743;52.160;20.910;2023-03-03T23:16:17;17.50;35.00